createdAt,value
2018-03-21T00:00:53.517Z,99.90
2018-03-21T00:03:21.165Z,99.90
2018-03-21T00:05:48.774Z,99.90
2018-03-21T00:08:16.344Z,99.90
2018-03-21T00:10:43.969Z,99.90
2018-03-21T00:13:11.547Z,99.90
2018-03-21T00:15:39.166Z,99.90
2018-03-21T00:18:06.788Z,99.90
2018-03-21T00:20:34.365Z,99.90
2018-03-21T00:23:01.978Z,99.90
2018-03-21T00:25:30.324Z,99.90
2018-03-21T00:27:57.934Z,99.90
2018-03-21T00:30:25.539Z,99.90
2018-03-21T00:32:53.222Z,99.90
2018-03-21T00:35:20.843Z,99.90
2018-03-21T00:37:48.427Z,99.90
2018-03-21T00:40:16.061Z,99.90
2018-03-21T00:42:43.768Z,99.90
2018-03-21T00:45:11.378Z,99.90
2018-03-21T00:47:38.977Z,99.90
2018-03-21T00:50:06.596Z,99.90
2018-03-21T00:52:34.264Z,99.90
2018-03-21T00:55:01.856Z,99.90
2018-03-21T00:57:29.476Z,99.90
2018-03-21T00:59:57.080Z,99.90
2018-03-21T01:02:24.662Z,99.90
2018-03-21T01:04:52.273Z,99.90
2018-03-21T01:07:19.863Z,99.90
2018-03-21T01:09:47.866Z,99.90
2018-03-21T01:12:15.449Z,99.90
2018-03-21T01:14:43.026Z,99.90
2018-03-21T01:17:10.634Z,99.90
2018-03-21T01:19:40.339Z,99.90
2018-03-21T01:22:07.910Z,99.90
2018-03-21T01:24:36.857Z,99.90
2018-03-21T01:27:04.476Z,99.90
2018-03-21T01:29:32.060Z,99.90
2018-03-21T01:31:59.684Z,99.90
2018-03-21T01:34:27.263Z,99.90
2018-03-21T01:36:55.644Z,99.90
2018-03-21T01:39:25.562Z,99.90
2018-03-21T01:41:56.031Z,99.90
2018-03-21T01:44:23.602Z,99.90
2018-03-21T01:46:51.218Z,99.90
2018-03-21T01:49:18.789Z,99.90
2018-03-21T01:51:46.403Z,99.90
2018-03-21T01:54:14.012Z,99.90
2018-03-21T01:56:41.578Z,99.90
2018-03-21T01:59:09.197Z,99.90
2018-03-21T02:01:36.775Z,99.90
2018-03-21T02:04:04.399Z,99.90
2018-03-21T02:06:31.975Z,99.90
2018-03-21T02:08:59.555Z,99.90
2018-03-21T02:11:27.169Z,99.90
2018-03-21T02:13:55.888Z,99.90
2018-03-21T02:16:23.463Z,99.90
2018-03-21T02:18:51.082Z,99.90
2018-03-21T02:21:18.649Z,99.90
2018-03-21T02:23:46.254Z,99.90
2018-03-21T02:26:14.648Z,99.90
2018-03-21T02:28:42.259Z,99.90
2018-03-21T02:31:09.870Z,99.90
2018-03-21T02:33:37.482Z,99.90
2018-03-21T02:36:05.096Z,99.90
2018-03-21T02:38:32.669Z,99.90
2018-03-21T02:41:01.073Z,99.90
2018-03-21T02:43:29.415Z,99.90
2018-03-21T02:45:57.029Z,99.90
2018-03-21T02:48:24.650Z,99.90
2018-03-21T02:50:52.228Z,99.90
2018-03-21T02:53:19.798Z,99.90
2018-03-21T02:55:47.422Z,99.90
2018-03-21T02:58:14.994Z,99.90
2018-03-21T03:00:42.562Z,99.90
2018-03-21T03:03:10.193Z,99.90
2018-03-21T03:05:37.773Z,99.90
2018-03-21T03:08:05.381Z,99.90
2018-03-21T03:10:32.986Z,99.90
2018-03-21T03:13:00.562Z,99.90
2018-03-21T03:15:28.170Z,99.90
2018-03-21T03:17:55.792Z,99.90
2018-03-21T03:20:23.367Z,99.90
2018-03-21T03:22:50.974Z,99.90
2018-03-21T03:25:18.542Z,99.90
2018-03-21T03:27:46.915Z,99.90
2018-03-21T03:30:15.259Z,99.90
2018-03-21T03:32:42.878Z,99.90
2018-03-21T03:35:10.454Z,99.90
2018-03-21T03:37:38.034Z,99.90
2018-03-21T03:40:05.639Z,99.90
2018-03-21T03:42:33.246Z,99.90
2018-03-21T03:45:00.846Z,99.90
2018-03-21T03:47:28.414Z,99.90
2018-03-21T03:49:56.799Z,99.90
2018-03-21T03:52:25.133Z,99.90
2018-03-21T03:54:52.711Z,99.90
2018-03-21T03:57:20.315Z,99.90
2018-03-21T03:59:47.921Z,99.90
2018-03-21T04:02:15.500Z,99.90
2018-03-21T04:04:43.118Z,99.90
2018-03-21T04:07:10.690Z,99.90
2018-03-21T04:09:38.304Z,99.90
2018-03-21T04:12:06.683Z,99.90
2018-03-21T04:14:35.054Z,99.90
2018-03-21T04:17:02.664Z,99.90
2018-03-21T04:19:30.276Z,99.90
2018-03-21T04:21:57.915Z,99.90
2018-03-21T04:24:25.486Z,99.90
2018-03-21T04:26:53.600Z,99.90
2018-03-21T04:29:21.215Z,99.90
2018-03-21T04:31:48.916Z,99.90
2018-03-21T04:34:16.487Z,99.90
2018-03-21T04:36:44.098Z,99.90
2018-03-21T04:39:11.682Z,99.90
2018-03-21T04:41:39.295Z,99.90
2018-03-21T04:44:06.861Z,99.90
2018-03-21T04:46:34.426Z,99.90
2018-03-21T04:49:02.029Z,99.90
2018-03-21T04:51:29.643Z,99.90
2018-03-21T04:53:57.300Z,99.90
2018-03-21T04:56:24.960Z,99.90
2018-03-21T04:58:52.551Z,99.90
2018-03-21T05:01:20.174Z,99.90
2018-03-21T05:03:47.788Z,99.90
2018-03-21T05:06:15.360Z,99.90
2018-03-21T05:08:43.746Z,99.90
2018-03-21T05:11:12.088Z,99.90
2018-03-21T05:13:39.682Z,99.90
2018-03-21T05:16:08.079Z,99.90
2018-03-21T05:18:35.650Z,99.90
2018-03-21T05:21:03.231Z,99.90
2018-03-21T05:23:30.847Z,99.90
2018-03-21T05:25:58.414Z,99.90
2018-03-21T05:28:26.783Z,99.90
2018-03-21T05:30:55.121Z,99.90
2018-03-21T05:33:22.738Z,99.90
2018-03-21T05:35:50.313Z,99.90
2018-03-21T05:38:17.963Z,99.90
2018-03-21T05:40:45.548Z,99.90
2018-03-21T05:43:13.171Z,99.90
2018-03-21T05:45:40.796Z,99.90
2018-03-21T05:48:08.479Z,99.90
2018-03-21T05:50:36.006Z,99.90
2018-03-21T05:53:03.627Z,99.90
2018-03-21T05:55:31.223Z,99.90
2018-03-21T05:57:58.794Z,99.90
2018-03-21T06:00:26.411Z,99.90
2018-03-21T06:02:54.790Z,99.90
2018-03-21T06:05:22.410Z,99.90
2018-03-21T06:07:49.981Z,99.90
2018-03-21T06:10:17.617Z,99.90
2018-03-21T06:12:45.198Z,99.90
2018-03-21T06:15:12.798Z,99.90
2018-03-21T06:17:41.158Z,99.90
2018-03-21T06:20:08.784Z,99.90
2018-03-21T06:22:36.408Z,99.90
2018-03-21T06:25:03.983Z,99.90
2018-03-21T06:27:31.589Z,99.90
2018-03-21T06:29:59.204Z,99.90
2018-03-21T06:32:26.856Z,99.90
2018-03-21T06:34:55.237Z,99.90
2018-03-21T06:37:22.843Z,99.90
2018-03-21T06:39:50.462Z,99.90
2018-03-21T06:42:18.062Z,99.90
2018-03-21T06:44:45.689Z,99.90
2018-03-21T06:47:13.265Z,99.90
2018-03-21T06:49:40.935Z,99.90
2018-03-21T06:52:09.123Z,99.90
2018-03-21T06:54:36.703Z,99.90
2018-03-21T06:57:04.314Z,99.90
2018-03-21T06:59:31.881Z,99.90
2018-03-21T07:01:59.557Z,99.90
2018-03-21T07:04:27.127Z,99.90
2018-03-21T07:06:54.741Z,99.90
2018-03-21T07:09:22.311Z,99.90
2018-03-21T07:11:50.061Z,99.90
2018-03-21T07:14:29.261Z,99.90
2018-03-21T07:16:56.888Z,99.90
2018-03-21T07:19:24.462Z,99.90
2018-03-21T07:21:52.076Z,99.90
2018-03-21T07:24:19.651Z,99.90
2018-03-21T07:26:47.269Z,99.90
2018-03-21T07:29:14.835Z,99.90
2018-03-21T07:31:42.494Z,99.90
2018-03-21T07:34:10.066Z,99.90
2018-03-21T07:36:37.679Z,99.90
2018-03-21T07:39:05.307Z,99.90
2018-03-21T07:41:32.883Z,99.90
2018-03-21T07:44:00.504Z,99.90
2018-03-21T07:46:28.110Z,99.90
2018-03-21T07:48:55.723Z,99.90
2018-03-21T07:51:23.340Z,99.90
2018-03-21T07:53:50.915Z,99.90
2018-03-21T07:56:18.541Z,99.90
2018-03-21T07:58:46.883Z,99.90
2018-03-21T08:01:14.492Z,99.90
2018-03-21T08:03:42.136Z,99.90
2018-03-21T08:06:10.524Z,99.90
2018-03-21T08:08:38.131Z,99.90
2018-03-21T08:11:05.751Z,99.90
2018-03-21T08:13:33.409Z,99.90
2018-03-21T08:16:01.743Z,99.90
2018-03-21T08:18:29.450Z,99.90
2018-03-21T08:20:57.057Z,99.90
2018-03-21T08:23:24.693Z,99.90
2018-03-21T08:25:52.345Z,99.90
2018-03-21T08:28:19.928Z,99.90
2018-03-21T08:30:47.550Z,99.90
2018-03-21T08:33:15.935Z,99.90
2018-03-21T08:35:44.345Z,99.90
2018-03-21T08:38:11.929Z,99.90
2018-03-21T08:40:39.550Z,99.90
2018-03-21T08:43:07.155Z,99.90
2018-03-21T08:45:34.743Z,99.90
2018-03-21T08:48:02.430Z,99.90
2018-03-21T08:50:30.070Z,99.90
2018-03-21T08:52:57.646Z,99.90
2018-03-21T08:55:25.252Z,99.90
2018-03-21T08:57:52.865Z,99.90
2018-03-21T09:00:20.516Z,99.90
2018-03-21T09:02:48.088Z,99.90
2018-03-21T09:05:15.726Z,99.90
2018-03-21T09:07:43.299Z,99.90
2018-03-21T09:10:10.911Z,99.90
2018-03-21T09:12:38.554Z,99.90
2018-03-21T09:15:06.883Z,99.90
2018-03-21T09:17:34.494Z,99.90
2018-03-21T09:20:02.069Z,99.90
2018-03-21T09:22:29.641Z,99.90
2018-03-21T09:24:57.272Z,99.90
2018-03-21T09:27:24.847Z,99.90
2018-03-21T09:29:52.449Z,99.90
2018-03-21T09:32:20.023Z,99.90
2018-03-21T09:34:47.654Z,99.90
2018-03-21T09:37:15.227Z,99.90
2018-03-21T09:39:42.794Z,99.90
2018-03-21T09:42:10.404Z,99.90
2018-03-21T09:44:37.990Z,99.90
2018-03-21T09:47:05.587Z,99.90
2018-03-21T09:49:33.211Z,99.90
2018-03-21T09:52:00.767Z,99.90
2018-03-21T09:54:28.370Z,99.90
2018-03-21T09:56:55.954Z,99.90
2018-03-21T09:59:24.331Z,99.90
2018-03-21T10:01:52.664Z,99.90
2018-03-21T10:04:20.295Z,99.90
2018-03-21T10:06:47.886Z,99.90
2018-03-21T10:09:15.458Z,99.90
2018-03-21T10:11:43.059Z,99.10
2018-03-21T10:14:11.409Z,94.50
2018-03-21T10:16:38.984Z,94.50
2018-03-21T10:19:07.361Z,92.10
2018-03-21T10:21:34.989Z,92.00
2018-03-21T10:24:02.605Z,91.10
2018-03-21T10:26:30.935Z,90.30
2018-03-21T10:28:58.503Z,90.30
2018-03-21T10:31:26.122Z,88.20
2018-03-21T10:33:53.706Z,88.30
2018-03-21T10:36:21.325Z,86.90
2018-03-21T10:38:49.659Z,87.10
2018-03-21T10:41:17.263Z,87.10
2018-03-21T10:43:45.590Z,88.40
2018-03-21T10:46:13.193Z,88.30
2018-03-21T10:48:41.535Z,86.80
2018-03-21T10:51:09.262Z,86.80
2018-03-21T10:53:36.830Z,87.30
2018-03-21T10:56:04.429Z,85.90
2018-03-21T10:58:31.990Z,84.70
2018-03-21T11:00:59.624Z,84.50
2018-03-21T11:03:27.389Z,85.10
2018-03-21T11:05:54.958Z,87.10
2018-03-21T11:08:22.572Z,85.40
2018-03-21T11:10:50.148Z,87.20
2018-03-21T11:13:18.250Z,87.40
2018-03-21T11:15:45.852Z,88.60
2018-03-21T11:18:13.704Z,90.30
2018-03-21T11:20:42.110Z,92.70
2018-03-21T11:23:10.441Z,93.00
2018-03-21T11:25:38.047Z,92.90
2018-03-21T11:28:06.422Z,91.70
2018-03-21T11:30:34.950Z,92.40
2018-03-21T11:33:02.551Z,92.00
2018-03-21T11:35:30.113Z,92.10
2018-03-21T11:37:57.725Z,92.70
2018-03-21T11:40:25.286Z,92.50
2018-03-21T11:42:52.894Z,93.10
2018-03-21T11:45:20.502Z,91.80
2018-03-21T11:47:48.066Z,91.20
2018-03-21T11:50:15.669Z,90.90
2018-03-21T11:52:43.334Z,90.50
2018-03-21T11:55:10.975Z,90.70
2018-03-21T11:57:38.606Z,88.20
2018-03-21T12:00:06.167Z,85.50
2018-03-21T12:02:33.762Z,86.10
2018-03-21T12:05:01.321Z,83.30
2018-03-21T12:07:28.932Z,81.80
2018-03-21T12:09:56.577Z,82.80
2018-03-21T12:12:24.146Z,82.00
2018-03-21T12:14:51.735Z,80.60
2018-03-21T12:17:19.355Z,82.40
2018-03-21T12:19:46.919Z,83.00
2018-03-21T12:22:14.522Z,84.50
2018-03-21T12:24:42.115Z,88.80
2018-03-21T12:27:09.705Z,90.20
2018-03-21T12:29:38.164Z,90.90
2018-03-21T12:32:05.782Z,90.70
2018-03-21T12:34:33.385Z,90.30
2018-03-21T12:37:00.985Z,90.80
2018-03-21T12:39:29.358Z,90.70
2018-03-21T12:41:56.964Z,90.60
2018-03-21T12:44:24.610Z,88.90
2018-03-21T12:46:52.920Z,86.30
2018-03-21T12:49:20.479Z,86.30
2018-03-21T12:51:48.076Z,84.50
2018-03-21T12:54:15.637Z,83.80
2018-03-21T12:56:44.028Z,84.80
2018-03-21T12:59:12.410Z,84.10
2018-03-21T13:01:40.796Z,85.50
2018-03-21T13:04:09.122Z,86.00
2018-03-21T13:06:36.678Z,85.80
2018-03-21T13:09:04.286Z,87.90
2018-03-21T13:11:31.846Z,89.40
2018-03-21T13:14:00.200Z,91.20
2018-03-21T13:16:27.764Z,91.20
2018-03-21T13:18:55.371Z,91.30
2018-03-21T13:21:23.060Z,91.20
2018-03-21T13:23:50.664Z,90.90
2018-03-21T13:26:18.274Z,90.80
2018-03-21T13:28:45.945Z,90.20
2018-03-21T13:31:13.519Z,89.70
2018-03-21T13:33:41.129Z,89.70
2018-03-21T13:36:09.482Z,90.00
2018-03-21T13:38:37.056Z,90.00
2018-03-21T13:41:05.434Z,88.70
2018-03-21T13:43:33.766Z,88.40
2018-03-21T13:46:01.327Z,88.40
2018-03-21T13:48:28.949Z,88.30
2018-03-21T13:50:57.279Z,88.90
2018-03-21T13:53:24.904Z,88.80
2018-03-21T13:55:52.507Z,89.20
2018-03-21T13:58:20.085Z,89.00
2018-03-21T14:00:47.646Z,85.40
2018-03-21T14:03:15.250Z,84.80
2018-03-21T14:05:42.814Z,81.30
2018-03-21T14:08:10.506Z,81.30
2018-03-21T14:10:38.088Z,79.80
2018-03-21T14:13:05.646Z,78.30
2018-03-21T14:15:33.272Z,75.80
2018-03-21T14:18:00.930Z,77.10
2018-03-21T14:23:02.311Z,77.20
2018-03-21T14:25:29.903Z,77.60
2018-03-21T14:27:57.468Z,78.10
2018-03-21T14:30:25.100Z,78.00
2018-03-21T14:32:53.480Z,79.40
2018-03-21T14:35:21.844Z,78.00
2018-03-21T14:37:49.487Z,77.90
2018-03-21T14:40:17.059Z,78.10
2018-03-21T14:42:44.676Z,77.20
2018-03-21T14:45:13.042Z,77.10
2018-03-21T14:47:40.639Z,77.10
2018-03-21T14:50:08.242Z,77.60
2018-03-21T14:52:35.892Z,77.30
2018-03-21T14:55:03.526Z,79.20
2018-03-21T14:57:31.164Z,80.40
2018-03-21T14:59:58.776Z,80.20
2018-03-21T15:02:26.416Z,80.90
2018-03-21T15:04:54.008Z,81.40
2018-03-21T15:07:21.678Z,82.70
2018-03-21T15:09:49.381Z,82.90
2018-03-21T15:12:16.962Z,83.80
2018-03-21T15:14:44.562Z,83.90
2018-03-21T15:17:12.135Z,84.50
2018-03-21T15:19:39.730Z,85.70
2018-03-21T15:22:08.094Z,86.00
2018-03-21T15:24:35.748Z,85.90
2018-03-21T15:27:03.373Z,86.70
2018-03-21T15:29:30.974Z,87.30
2018-03-21T15:31:58.534Z,87.50
2018-03-21T15:34:27.487Z,88.20
2018-03-21T15:36:55.210Z,89.40
2018-03-21T15:39:24.073Z,90.60
2018-03-21T15:41:53.449Z,90.90
2018-03-21T15:44:21.470Z,90.90
2018-03-21T15:46:50.930Z,91.10
2018-03-21T15:49:18.696Z,91.60
2018-03-21T15:51:47.085Z,91.30
2018-03-21T15:54:15.935Z,91.90
2018-03-21T15:56:43.931Z,91.90
2018-03-21T15:59:11.916Z,91.80
2018-03-21T16:01:39.905Z,91.90
2018-03-21T16:04:08.551Z,90.00
2018-03-21T16:06:36.584Z,89.90
2018-03-21T16:09:04.814Z,90.20
2018-03-21T16:11:32.779Z,90.30
2018-03-21T16:14:01.513Z,89.60
2018-03-21T16:16:29.435Z,89.50
2018-03-21T16:18:57.712Z,90.10
2018-03-21T16:21:27.242Z,89.90
2018-03-21T16:23:56.045Z,87.20
2018-03-21T16:26:23.995Z,87.10
2018-03-21T16:28:52.045Z,87.40
2018-03-21T16:31:20.076Z,87.60
2018-03-21T16:33:47.854Z,86.50
2018-03-21T16:36:15.832Z,87.90
2018-03-21T16:38:43.733Z,90.00
2018-03-21T16:41:11.923Z,91.20
2018-03-21T16:43:40.639Z,91.80
2018-03-21T16:46:08.494Z,91.70
2018-03-21T16:48:36.552Z,91.70
2018-03-21T16:51:04.641Z,91.60
2018-03-21T16:53:32.667Z,91.90
2018-03-21T16:56:00.741Z,92.70
2018-03-21T16:58:28.906Z,93.50
2018-03-21T17:00:56.884Z,94.10
2018-03-21T17:03:24.899Z,94.80
2018-03-21T17:05:52.895Z,95.50
2018-03-21T17:08:20.929Z,96.10
2018-03-21T17:10:49.056Z,96.60
2018-03-21T17:13:17.034Z,96.80
2018-03-21T17:15:45.027Z,97.20
2018-03-21T17:18:12.892Z,97.80
2018-03-21T17:20:41.931Z,98.80
2018-03-21T17:23:09.587Z,99.10
2018-03-21T17:25:37.179Z,99.80
2018-03-21T17:28:04.735Z,99.90
2018-03-21T17:30:32.395Z,99.90
2018-03-21T17:32:59.955Z,99.90
2018-03-21T17:35:27.549Z,99.90
2018-03-21T17:37:55.175Z,99.90
2018-03-21T17:40:22.754Z,99.90
2018-03-21T17:42:50.361Z,99.90
2018-03-21T17:45:17.933Z,99.90
2018-03-21T17:47:45.551Z,99.90
2018-03-21T17:50:13.110Z,99.90
2018-03-21T17:52:40.681Z,99.90
2018-03-21T17:55:08.289Z,99.90
2018-03-21T17:57:35.907Z,99.90
2018-03-21T18:00:03.483Z,99.90
2018-03-21T18:02:31.109Z,99.90
2018-03-21T18:04:58.677Z,99.90
2018-03-21T18:07:26.285Z,99.90
2018-03-21T18:09:53.889Z,99.90
2018-03-21T18:12:21.645Z,99.90
2018-03-21T18:14:49.256Z,99.90
2018-03-21T18:17:16.823Z,99.90
2018-03-21T18:19:44.429Z,99.90
2018-03-21T18:22:11.990Z,99.90
2018-03-21T18:24:39.558Z,99.90
2018-03-21T18:27:07.192Z,99.90
2018-03-21T18:29:35.543Z,99.90
2018-03-21T18:32:03.151Z,99.90
2018-03-21T18:34:30.732Z,99.90
2018-03-21T18:36:58.342Z,99.90
2018-03-21T18:39:26.674Z,99.90
2018-03-21T18:41:54.368Z,99.90
2018-03-21T18:44:21.987Z,99.90
2018-03-21T18:46:52.652Z,99.90
2018-03-21T18:49:20.826Z,99.90
2018-03-21T18:51:48.528Z,99.90
2018-03-21T18:54:16.436Z,99.90
2018-03-21T18:56:44.407Z,99.90
2018-03-21T18:59:12.969Z,99.90
2018-03-21T19:01:40.610Z,99.90
2018-03-21T19:04:08.994Z,99.90
2018-03-21T19:06:37.350Z,99.90
2018-03-21T19:09:04.988Z,99.90
2018-03-21T19:11:32.597Z,99.90
2018-03-21T19:14:00.966Z,99.90
2018-03-21T19:16:29.315Z,99.90
2018-03-21T19:18:56.967Z,99.90
2018-03-21T19:21:24.624Z,99.90
2018-03-21T19:23:52.223Z,99.90
2018-03-21T19:26:19.824Z,99.90
2018-03-21T19:28:47.426Z,99.30
2018-03-21T19:31:14.981Z,98.70
2018-03-21T19:33:42.575Z,98.20
2018-03-21T19:36:10.183Z,98.10
2018-03-21T19:38:37.774Z,98.50
2018-03-21T19:41:05.334Z,98.20
2018-03-21T19:43:32.929Z,97.90
2018-03-21T19:46:01.262Z,97.10
2018-03-21T19:48:28.854Z,97.10
2018-03-21T19:50:57.194Z,96.40
2018-03-21T19:53:24.785Z,96.40
2018-03-21T19:55:52.385Z,96.20
2018-03-21T19:58:19.986Z,96.00
2018-03-21T20:00:47.583Z,95.70
2018-03-21T20:03:15.915Z,95.90
2018-03-21T20:05:43.589Z,95.90
2018-03-21T20:08:11.119Z,96.10
2018-03-21T20:10:38.732Z,96.20
2018-03-21T20:13:06.295Z,96.20
2018-03-21T20:15:33.858Z,96.30
2018-03-21T20:18:01.454Z,96.30
2018-03-21T20:20:29.045Z,96.40
2018-03-21T20:22:56.648Z,96.60
2018-03-21T20:25:24.212Z,96.80
2018-03-21T20:27:51.831Z,96.80
2018-03-21T20:30:19.394Z,96.90
2018-03-21T20:32:46.987Z,97.20
2018-03-21T20:35:15.322Z,97.80
2018-03-21T20:37:42.919Z,97.80
2018-03-21T20:40:10.518Z,98.10
2018-03-21T20:42:38.112Z,98.40
2018-03-21T20:45:05.720Z,98.60
2018-03-21T20:47:33.315Z,98.60
2018-03-21T20:50:00.918Z,98.50
2018-03-21T20:52:28.484Z,98.50
2018-03-21T20:54:56.111Z,98.40
2018-03-21T20:57:23.681Z,98.30
2018-03-21T20:59:51.281Z,98.40
2018-03-21T21:02:18.847Z,98.60
2018-03-21T21:04:46.464Z,98.60
2018-03-21T21:07:14.022Z,98.70
2018-03-21T21:09:41.612Z,98.50
2018-03-21T21:12:09.214Z,98.50
2018-03-21T21:14:36.866Z,98.50
2018-03-21T21:17:05.200Z,98.70
2018-03-21T21:19:32.808Z,98.70
2018-03-21T21:22:00.380Z,98.70
2018-03-21T21:24:27.937Z,98.70
2018-03-21T21:26:55.551Z,98.70
2018-03-21T21:29:23.755Z,98.70
2018-03-21T21:31:52.133Z,98.90
2018-03-21T21:34:21.467Z,98.80
2018-03-21T21:36:49.082Z,98.80
2018-03-21T21:39:16.777Z,98.50
2018-03-21T21:41:45.106Z,98.60
2018-03-21T21:44:12.710Z,98.60
2018-03-21T21:46:40.280Z,98.50
2018-03-21T21:49:08.282Z,98.40
2018-03-21T21:51:35.853Z,98.40
2018-03-21T21:54:03.671Z,98.50
2018-03-21T21:56:31.558Z,98.40
2018-03-21T21:58:59.342Z,98.50
2018-03-21T22:01:26.987Z,98.50
2018-03-21T22:03:54.571Z,98.60
2018-03-21T22:06:22.176Z,98.60
2018-03-21T22:08:50.575Z,98.70
2018-03-21T22:11:18.219Z,98.70
2018-03-21T22:13:46.241Z,98.90
2018-03-21T22:16:14.818Z,98.90
2018-03-21T22:18:42.604Z,99.00
2018-03-21T22:21:10.481Z,99.30
2018-03-21T22:23:38.642Z,99.40
2018-03-21T22:26:06.240Z,99.40
2018-03-21T22:28:33.839Z,99.30
2018-03-21T22:31:01.445Z,99.40
2018-03-21T22:33:29.049Z,99.60
2018-03-21T22:35:56.613Z,99.60
2018-03-21T22:38:24.214Z,99.60
2018-03-21T22:40:51.913Z,99.60
2018-03-21T22:43:19.593Z,99.70
2018-03-21T22:45:47.159Z,99.70
2018-03-21T22:48:14.758Z,99.50
2018-03-21T22:50:42.355Z,99.60
2018-03-21T22:53:09.949Z,99.90
2018-03-21T22:55:37.593Z,99.90
2018-03-21T22:58:05.258Z,99.90
2018-03-21T23:00:32.963Z,99.90
2018-03-21T23:03:00.552Z,99.90
2018-03-21T23:05:28.188Z,99.90
2018-03-21T23:07:56.266Z,99.90
2018-03-21T23:10:24.550Z,99.90
2018-03-21T23:12:52.285Z,99.90
2018-03-21T23:15:21.262Z,99.90
2018-03-21T23:17:49.173Z,99.90
2018-03-21T23:20:17.288Z,99.90
2018-03-21T23:22:45.453Z,99.90
2018-03-21T23:25:13.793Z,99.90
2018-03-21T23:27:41.414Z,99.90
2018-03-21T23:30:08.997Z,99.90
2018-03-21T23:32:36.619Z,99.90
2018-03-21T23:35:04.244Z,99.90
2018-03-21T23:37:31.855Z,99.90
2018-03-21T23:39:59.481Z,99.90
2018-03-21T23:42:27.061Z,99.90
2018-03-21T23:44:55.446Z,99.90
2018-03-21T23:47:26.000Z,99.90
2018-03-21T23:49:53.595Z,99.90
2018-03-21T23:52:21.173Z,99.90
2018-03-21T23:54:48.781Z,99.90
2018-03-21T23:57:16.404Z,99.90
2018-03-21T23:59:44.758Z,99.90
